createdAt,value
2023-01-17T00:02:21.009Z,2.94
2023-01-17T00:05:06.584Z,2.98
2023-01-17T00:07:52.533Z,3.02
2023-01-17T00:10:22.601Z,3.04
2023-01-17T00:12:52.470Z,3.06
2023-01-17T00:15:20.592Z,3.06
2023-01-17T00:17:48.950Z,3.05
2023-01-17T00:20:36.775Z,3.03
2023-01-17T00:23:37.175Z,3.06
2023-01-17T00:26:17.148Z,3.04
2023-01-17T00:28:44.882Z,3.08
2023-01-17T00:31:14.012Z,3.05
2023-01-17T00:33:41.221Z,3.08
2023-01-17T00:36:09.097Z,3.08
2023-01-17T00:38:38.596Z,3.07
2023-01-17T00:41:10.787Z,3.07
2023-01-17T00:43:57.075Z,3.10
2023-01-17T00:46:42.845Z,3.10
2023-01-17T00:49:28.969Z,3.11
2023-01-17T00:52:14.270Z,3.14
2023-01-17T00:54:59.861Z,3.15
2023-01-17T00:57:45.424Z,3.09
2023-01-17T01:00:31.523Z,3.08
2023-01-17T01:03:17.104Z,3.07
2023-01-17T01:06:02.660Z,3.09
2023-01-17T01:08:49.656Z,3.16
2023-01-17T01:11:39.600Z,3.15
2023-01-17T01:14:29.398Z,3.12
2023-01-17T01:17:15.246Z,3.14
2023-01-17T01:20:00.912Z,3.15
2023-01-17T01:22:46.728Z,3.18
2023-01-17T01:25:32.208Z,3.15
2023-01-17T01:28:31.836Z,3.09
2023-01-17T01:31:24.566Z,3.11
2023-01-17T01:33:53.006Z,3.13
2023-01-17T01:36:20.790Z,3.13
2023-01-17T01:38:48.438Z,3.10
2023-01-17T01:41:15.537Z,3.14
2023-01-17T01:43:47.356Z,3.08
2023-01-17T01:46:35.154Z,3.11
2023-01-17T01:49:24.930Z,3.08
2023-01-17T01:51:59.200Z,3.07
2023-01-17T01:54:32.715Z,3.08
2023-01-17T01:57:04.028Z,3.06
2023-01-17T01:59:34.168Z,3.06
2023-01-17T02:02:01.842Z,3.03
2023-01-17T02:04:29.385Z,3.04
2023-01-17T02:07:03.763Z,2.93
2023-01-17T02:09:30.854Z,3.05
2023-01-17T02:11:58.399Z,3.06
2023-01-17T02:14:25.634Z,3.08
2023-01-17T02:17:17.813Z,3.09
2023-01-17T02:20:22.362Z,3.10
2023-01-17T02:23:07.814Z,3.05
2023-01-17T02:25:52.904Z,3.07
2023-01-17T02:28:28.917Z,3.08
2023-01-17T02:31:04.803Z,3.09
2023-01-17T02:33:57.518Z,3.09
2023-01-17T02:36:32.092Z,3.10
2023-01-17T02:39:20.571Z,3.10
2023-01-17T02:42:03.147Z,3.07
2023-01-17T02:44:30.169Z,3.04
2023-01-17T02:46:59.558Z,3.09
2023-01-17T02:49:30.239Z,3.10
2023-01-17T02:52:27.219Z,3.09
2023-01-17T02:55:16.061Z,3.10
2023-01-17T02:58:07.069Z,3.09
2023-01-17T03:00:49.081Z,3.06
2023-01-17T03:03:48.052Z,3.06
2023-01-17T03:06:29.381Z,3.08
2023-01-17T03:08:56.362Z,3.05
2023-01-17T03:11:23.522Z,3.10
2023-01-17T03:13:55.405Z,3.07
2023-01-17T03:16:24.969Z,3.10
2023-01-17T03:18:54.006Z,3.09
2023-01-17T03:21:22.011Z,3.09
2023-01-17T03:23:49.424Z,3.10
2023-01-17T03:26:16.858Z,3.10
2023-01-17T03:28:44.006Z,3.06
2023-01-17T03:31:15.413Z,3.11
2023-01-17T03:33:42.523Z,3.11
2023-01-17T03:36:10.107Z,3.09
2023-01-17T03:38:37.620Z,3.10
2023-01-17T03:41:05.932Z,3.09
2023-01-17T03:43:33.065Z,3.10
2023-01-17T03:46:08.695Z,3.10
2023-01-17T03:48:35.788Z,3.10
2023-01-17T03:51:02.973Z,3.10
2023-01-17T03:53:30.094Z,3.11
2023-01-17T03:55:57.121Z,3.10
2023-01-17T03:58:24.174Z,3.07
2023-01-17T04:00:51.255Z,3.13
2023-01-17T04:03:18.259Z,3.14
2023-01-17T04:05:45.421Z,3.16
2023-01-17T04:08:12.507Z,3.13
2023-01-17T04:10:39.566Z,3.17
2023-01-17T04:13:06.778Z,3.18
2023-01-17T04:15:34.550Z,3.15
2023-01-17T04:18:01.889Z,3.18
2023-01-17T04:20:40.141Z,3.21
2023-01-17T04:23:07.619Z,3.23
2023-01-17T04:25:34.789Z,3.24
2023-01-17T04:28:03.973Z,3.23
2023-01-17T04:30:32.379Z,3.25
2023-01-17T04:32:59.758Z,3.27
2023-01-17T04:35:27.103Z,3.25
2023-01-17T04:37:54.175Z,3.22
2023-01-17T04:40:21.344Z,3.23
2023-01-17T04:42:48.747Z,3.19
2023-01-17T04:45:16.158Z,3.22
2023-01-17T04:47:43.266Z,3.24
2023-01-17T04:50:13.104Z,3.23
2023-01-17T04:52:40.235Z,3.21
2023-01-17T04:55:08.251Z,3.23
2023-01-17T04:57:35.346Z,3.22
2023-01-17T05:00:04.957Z,3.20
2023-01-17T05:02:32.169Z,3.19
2023-01-17T05:04:59.285Z,3.20
2023-01-17T05:07:26.325Z,3.21
2023-01-17T05:09:53.356Z,3.17
2023-01-17T05:12:20.482Z,3.20
2023-01-17T05:14:47.553Z,3.19
2023-01-17T05:17:14.714Z,3.21
2023-01-17T05:19:41.760Z,3.22
2023-01-17T05:22:17.188Z,3.19
2023-01-17T05:24:45.894Z,3.19
2023-01-17T05:27:13.249Z,3.21
2023-01-17T05:29:40.448Z,3.20
2023-01-17T05:32:08.242Z,3.20
2023-01-17T05:34:35.319Z,3.19
2023-01-17T05:37:02.491Z,3.17
2023-01-17T05:39:31.234Z,3.17
2023-01-17T05:41:59.484Z,3.19
2023-01-17T05:44:27.869Z,3.20
2023-01-17T05:46:55.568Z,3.20
2023-01-17T05:49:22.620Z,3.17
2023-01-17T05:51:50.242Z,3.17
2023-01-17T05:54:17.931Z,3.19
2023-01-17T05:56:44.936Z,3.18
2023-01-17T05:59:14.083Z,3.22
2023-01-17T06:01:41.439Z,3.19
2023-01-17T06:04:08.574Z,3.20
2023-01-17T06:06:36.394Z,3.22
2023-01-17T06:09:03.820Z,3.13
2023-01-17T06:11:30.757Z,3.18
2023-01-17T06:13:57.809Z,3.17
2023-01-17T06:16:24.956Z,3.17
2023-01-17T06:18:52.094Z,3.17
2023-01-17T06:21:19.992Z,3.15
2023-01-17T06:23:47.119Z,3.13
2023-01-17T06:26:14.339Z,3.07
2023-01-17T06:28:41.362Z,3.04
2023-01-17T06:31:09.564Z,3.04
2023-01-17T06:33:36.942Z,3.05
2023-01-17T06:36:04.533Z,3.06
2023-01-17T06:38:31.834Z,2.98
2023-01-17T06:41:00.676Z,2.99
2023-01-17T06:43:29.057Z,2.98
2023-01-17T06:45:56.251Z,2.95
2023-01-17T06:48:23.357Z,2.94
2023-01-17T06:50:50.444Z,2.90
2023-01-17T06:53:17.718Z,2.86
2023-01-17T06:55:44.852Z,2.89
2023-01-17T06:58:12.133Z,2.86
2023-01-17T07:00:40.934Z,2.83
2023-01-17T07:03:19.355Z,2.84
2023-01-17T07:05:46.533Z,2.83
2023-01-17T07:08:14.268Z,2.81
2023-01-17T07:10:41.367Z,2.80
2023-01-17T07:13:08.729Z,2.79
2023-01-17T07:15:35.775Z,2.82
2023-01-17T07:18:04.169Z,2.83
2023-01-17T07:20:31.265Z,2.80
2023-01-17T07:22:58.539Z,2.86
2023-01-17T07:25:27.721Z,2.89
2023-01-17T07:27:57.784Z,2.90
2023-01-17T07:30:25.197Z,2.87
2023-01-17T07:32:53.633Z,2.88
2023-01-17T07:35:22.000Z,2.90
2023-01-17T07:37:50.152Z,2.89
2023-01-17T07:40:18.496Z,2.90
2023-01-17T07:42:45.999Z,2.91
2023-01-17T07:45:15.000Z,2.91
2023-01-17T07:47:42.260Z,2.89
2023-01-17T07:50:10.009Z,2.86
2023-01-17T07:52:37.068Z,2.87
2023-01-17T07:55:05.281Z,2.85
2023-01-17T07:57:33.105Z,2.86
2023-01-17T08:00:00.157Z,2.86
2023-01-17T08:02:27.274Z,2.87
2023-01-17T08:04:54.276Z,2.83
2023-01-17T08:07:21.511Z,2.82
2023-01-17T08:09:50.723Z,2.84
2023-01-17T08:12:17.970Z,2.85
2023-01-17T08:14:45.174Z,2.84
2023-01-17T08:17:14.901Z,2.87
2023-01-17T08:19:44.472Z,2.88
2023-01-17T08:22:12.462Z,2.88
2023-01-17T08:24:39.586Z,2.88
2023-01-17T08:27:06.860Z,2.91
2023-01-17T08:29:33.964Z,2.89
2023-01-17T08:32:01.070Z,2.72
2023-01-17T08:34:28.385Z,2.88
2023-01-17T08:36:55.723Z,2.89
2023-01-17T08:39:22.802Z,2.91
2023-01-17T08:41:49.919Z,2.94
2023-01-17T08:44:17.110Z,2.94
2023-01-17T08:46:44.408Z,2.99
2023-01-17T08:49:12.820Z,3.01
2023-01-17T08:51:40.573Z,3.05
2023-01-17T08:54:09.734Z,3.07
2023-01-17T08:56:36.881Z,3.14
2023-01-17T08:59:04.112Z,3.24
2023-01-17T09:01:31.211Z,3.28
2023-01-17T09:03:58.423Z,3.32
2023-01-17T09:06:25.504Z,3.36
2023-01-17T09:08:54.980Z,3.38
2023-01-17T09:11:22.148Z,3.40
2023-01-17T09:13:49.249Z,3.43
2023-01-17T09:16:16.463Z,3.42
2023-01-17T09:18:43.599Z,3.43
2023-01-17T09:21:18.308Z,3.43
2023-01-17T09:23:46.025Z,3.46
2023-01-17T09:26:30.135Z,3.46
2023-01-17T09:28:58.911Z,3.48
2023-01-17T09:31:27.345Z,3.52
2023-01-17T09:33:55.636Z,3.57
2023-01-17T09:36:23.458Z,3.58
2023-01-17T09:38:56.821Z,3.63
2023-01-17T09:41:56.084Z,3.68
2023-01-17T09:44:47.285Z,3.71
2023-01-17T09:47:37.665Z,3.76
2023-01-17T09:50:15.555Z,3.77
2023-01-17T09:52:43.387Z,3.64
2023-01-17T09:55:18.309Z,3.79
2023-01-17T09:57:51.224Z,3.81
2023-01-17T10:00:33.502Z,3.81
2023-01-17T10:03:39.083Z,3.85
2023-01-17T10:06:31.914Z,3.87
2023-01-17T10:09:35.014Z,3.92
2023-01-17T10:12:18.959Z,3.94
2023-01-17T10:15:21.787Z,4.03
2023-01-17T10:18:21.777Z,4.05
2023-01-17T10:21:23.833Z,4.12
2023-01-17T10:24:16.511Z,4.16
2023-01-17T10:26:53.736Z,4.23
2023-01-17T10:29:21.348Z,4.23
2023-01-17T10:32:00.493Z,4.28
2023-01-17T10:34:42.869Z,4.31
2023-01-17T10:37:41.179Z,4.35
2023-01-17T10:40:22.627Z,4.41
2023-01-17T10:42:57.837Z,4.43
2023-01-17T10:45:29.241Z,4.46
2023-01-17T10:48:05.093Z,4.50
2023-01-17T10:50:53.567Z,4.55
2023-01-17T10:53:34.536Z,4.61
2023-01-17T10:56:02.436Z,4.66
2023-01-17T10:58:29.564Z,4.73
2023-01-17T11:01:18.033Z,4.81
2023-01-17T11:03:51.263Z,4.89
2023-01-17T11:06:24.210Z,5.01
2023-01-17T11:08:54.524Z,5.09
2023-01-17T11:11:23.536Z,5.11
2023-01-17T11:13:52.741Z,5.16
2023-01-17T11:16:25.488Z,5.15
2023-01-17T11:19:11.006Z,5.17
2023-01-17T11:21:40.530Z,5.21
2023-01-17T11:24:19.423Z,5.22
2023-01-17T11:26:49.624Z,5.23
2023-01-17T11:29:37.332Z,5.22
2023-01-17T11:32:22.580Z,5.21
2023-01-17T11:35:18.311Z,5.13
2023-01-17T11:37:59.511Z,5.12
2023-01-17T11:40:49.938Z,5.10
2023-01-17T11:43:23.020Z,5.07
2023-01-17T11:46:04.720Z,5.07
2023-01-17T11:48:37.717Z,5.08
2023-01-17T11:51:16.923Z,5.06
2023-01-17T11:53:48.871Z,5.09
2023-01-17T11:56:21.343Z,5.08
2023-01-17T11:58:48.554Z,5.08
2023-01-17T12:01:18.355Z,5.12
2023-01-17T12:04:12.409Z,5.08
2023-01-17T12:06:58.610Z,5.14
2023-01-17T12:09:32.162Z,5.20
2023-01-17T12:12:48.801Z,5.25
2023-01-17T12:15:21.612Z,5.27
2023-01-17T12:18:09.187Z,5.29
2023-01-17T12:20:36.137Z,5.30
2023-01-17T12:23:18.262Z,5.26
2023-01-17T12:25:48.280Z,5.25
2023-01-17T12:28:46.522Z,5.29
2023-01-17T12:31:24.821Z,5.33
2023-01-17T12:33:57.821Z,5.36
2023-01-17T12:36:49.641Z,5.39
2023-01-17T12:39:22.593Z,5.40
2023-01-17T12:41:49.636Z,5.41
2023-01-17T12:44:20.163Z,5.40
2023-01-17T12:46:54.184Z,5.47
2023-01-17T12:49:30.135Z,5.51
2023-01-17T12:52:05.209Z,5.49
2023-01-17T12:54:38.523Z,5.50
2023-01-17T12:57:27.694Z,5.45
2023-01-17T13:00:12.746Z,5.46
2023-01-17T13:02:58.361Z,5.47
2023-01-17T13:05:37.467Z,5.44
2023-01-17T13:08:07.039Z,5.44
2023-01-17T13:10:46.394Z,5.36
2023-01-17T13:13:24.279Z,5.34
2023-01-17T13:16:14.676Z,5.30
2023-01-17T13:18:45.261Z,5.27
2023-01-17T13:21:30.303Z,5.27
2023-01-17T13:24:02.169Z,5.27
2023-01-17T13:26:56.348Z,5.20
2023-01-17T13:30:03.248Z,5.23
2023-01-17T13:32:55.593Z,5.21
2023-01-17T13:35:40.089Z,5.17
2023-01-17T13:38:15.921Z,5.21
2023-01-17T13:40:58.655Z,5.20
2023-01-17T13:43:30.747Z,5.19
2023-01-17T13:46:01.549Z,5.18
2023-01-17T13:48:41.036Z,5.13
2023-01-17T13:51:11.912Z,5.15
2023-01-17T13:53:39.012Z,5.13
2023-01-17T13:56:31.714Z,5.14
2023-01-17T13:59:03.562Z,5.15
2023-01-17T14:01:38.676Z,5.14
2023-01-17T14:04:08.494Z,5.12
2023-01-17T14:06:37.340Z,5.17
2023-01-17T14:09:27.967Z,5.16
2023-01-17T14:12:14.269Z,5.16
2023-01-17T14:14:41.923Z,5.15
2023-01-17T14:17:25.741Z,5.16
2023-01-17T14:20:01.335Z,5.12
2023-01-17T14:22:31.783Z,5.15
2023-01-17T14:25:20.148Z,5.12
2023-01-17T14:27:55.042Z,5.12
2023-01-17T14:30:34.040Z,5.11
2023-01-17T14:33:22.566Z,5.10
2023-01-17T14:35:56.311Z,5.10
2023-01-17T14:38:34.085Z,5.09
2023-01-17T14:41:09.752Z,5.09
2023-01-17T14:43:41.043Z,5.09
2023-01-17T14:46:31.399Z,5.09
2023-01-17T14:49:20.809Z,5.04
2023-01-17T14:52:02.484Z,5.03
2023-01-17T14:54:29.954Z,4.98
2023-01-17T14:57:26.934Z,4.99
2023-01-17T15:00:11.360Z,4.97
2023-01-17T15:02:44.168Z,4.98
2023-01-17T15:05:16.891Z,4.95
2023-01-17T15:07:47.022Z,4.86
2023-01-17T15:10:17.788Z,4.92
2023-01-17T15:12:47.250Z,4.91
2023-01-17T15:15:44.155Z,4.88
2023-01-17T15:18:14.144Z,4.85
2023-01-17T15:21:09.221Z,4.82
2023-01-17T15:23:44.423Z,4.79
2023-01-17T15:26:14.039Z,4.81
2023-01-17T15:28:42.274Z,4.78
2023-01-17T15:31:37.916Z,4.79
2023-01-17T15:34:07.656Z,4.78
2023-01-17T15:36:35.766Z,4.64
2023-01-17T15:39:15.173Z,4.75
2023-01-17T15:41:42.276Z,4.71
2023-01-17T15:44:33.395Z,4.62
2023-01-17T15:47:30.405Z,4.60
2023-01-17T15:49:58.329Z,4.58
2023-01-17T15:52:25.673Z,4.57
2023-01-17T15:54:58.964Z,4.56
2023-01-17T15:57:37.816Z,4.57
2023-01-17T16:00:20.458Z,4.56
2023-01-17T16:02:55.423Z,4.52
2023-01-17T16:05:23.137Z,4.53
2023-01-17T16:07:54.761Z,4.51
2023-01-17T16:10:31.860Z,4.50
2023-01-17T16:12:59.964Z,4.51
2023-01-17T16:15:28.301Z,4.49
2023-01-17T16:18:06.904Z,4.46
2023-01-17T16:21:01.439Z,4.45
2023-01-17T16:23:28.763Z,4.43
2023-01-17T16:25:55.877Z,4.41
2023-01-17T16:28:23.246Z,4.41
2023-01-17T16:30:50.314Z,4.37
2023-01-17T16:33:17.455Z,4.36
2023-01-17T16:35:44.564Z,4.38
2023-01-17T16:38:14.280Z,4.37
2023-01-17T16:40:47.122Z,4.26
2023-01-17T16:43:17.339Z,4.31
2023-01-17T16:45:46.392Z,4.29
2023-01-17T16:48:14.097Z,4.28
2023-01-17T16:50:48.191Z,4.22
2023-01-17T16:53:15.897Z,4.21
2023-01-17T16:55:44.157Z,4.17
2023-01-17T16:58:11.560Z,4.11
2023-01-17T17:00:40.568Z,4.09
2023-01-17T17:03:07.629Z,4.08
2023-01-17T17:05:34.925Z,4.03
2023-01-17T17:08:02.061Z,4.01
2023-01-17T17:10:30.197Z,3.95
2023-01-17T17:12:57.508Z,3.91
2023-01-17T17:15:24.649Z,3.90
2023-01-17T17:17:52.700Z,3.82
2023-01-17T17:20:20.208Z,3.83
2023-01-17T17:22:51.713Z,3.79
2023-01-17T17:25:19.559Z,3.77
2023-01-17T17:27:46.614Z,3.74
2023-01-17T17:30:14.090Z,3.73
2023-01-17T17:32:41.216Z,3.60
2023-01-17T17:35:08.805Z,3.69
2023-01-17T17:37:36.032Z,3.68
2023-01-17T17:40:04.502Z,3.64
2023-01-17T17:42:31.761Z,3.65
2023-01-17T17:44:58.786Z,3.60
2023-01-17T17:47:25.908Z,3.58
2023-01-17T17:49:52.972Z,3.55
2023-01-17T17:52:20.083Z,3.54
2023-01-17T17:54:48.536Z,3.50
2023-01-17T17:57:15.630Z,3.46
2023-01-17T17:59:42.648Z,3.44
2023-01-17T18:02:11.473Z,3.39
2023-01-17T18:04:39.072Z,3.39
2023-01-17T18:07:06.297Z,3.36
2023-01-17T18:09:33.347Z,3.31
2023-01-17T18:12:00.536Z,3.24
2023-01-17T18:14:27.641Z,3.23
2023-01-17T18:16:54.948Z,3.24
2023-01-17T18:19:24.465Z,3.23
2023-01-17T18:21:52.638Z,3.22
2023-01-17T18:24:22.034Z,3.21
2023-01-17T18:26:51.619Z,3.17
2023-01-17T18:29:24.416Z,3.17
2023-01-17T18:31:52.653Z,3.11
2023-01-17T18:34:24.608Z,3.11
2023-01-17T18:36:52.280Z,3.10
2023-01-17T18:39:22.023Z,3.07
2023-01-17T18:41:49.716Z,3.02
2023-01-17T18:44:18.071Z,3.01
2023-01-17T18:46:48.092Z,2.98
2023-01-17T18:49:16.650Z,2.95
2023-01-17T18:51:46.860Z,2.93
2023-01-17T18:54:13.840Z,2.84
2023-01-17T18:56:42.625Z,2.83
2023-01-17T18:59:12.978Z,2.82
2023-01-17T19:01:42.446Z,2.79
2023-01-17T19:04:10.377Z,2.76
2023-01-17T19:06:43.167Z,2.70
2023-01-17T19:09:11.867Z,2.71
2023-01-17T19:11:39.662Z,2.70
2023-01-17T19:14:07.247Z,2.64
2023-01-17T19:16:39.329Z,2.62
2023-01-17T19:19:13.864Z,2.60
2023-01-17T19:21:41.071Z,2.57
2023-01-17T19:24:10.262Z,2.58
2023-01-17T19:26:37.368Z,2.53
2023-01-17T19:29:05.378Z,2.49
2023-01-17T19:31:36.391Z,2.47
2023-01-17T19:34:03.635Z,2.45
2023-01-17T19:36:35.926Z,2.44
2023-01-17T19:39:06.092Z,2.42
2023-01-17T19:41:41.299Z,2.43
2023-01-17T19:44:10.567Z,2.40
2023-01-17T19:46:38.332Z,2.41
2023-01-17T19:49:08.333Z,2.40
2023-01-17T19:51:36.475Z,2.39
2023-01-17T19:54:05.331Z,2.37
2023-01-17T19:56:32.487Z,2.33
2023-01-17T19:59:01.828Z,2.34
2023-01-17T20:01:32.304Z,2.32
2023-01-17T20:04:00.052Z,2.26
2023-01-17T20:06:30.621Z,2.17
2023-01-17T20:08:57.928Z,2.11
2023-01-17T20:11:28.830Z,2.05
2023-01-17T20:13:57.820Z,1.94
2023-01-17T20:16:26.567Z,1.93
2023-01-17T20:18:53.867Z,1.88
2023-01-17T20:21:24.186Z,1.83
2023-01-17T20:23:53.181Z,1.75
2023-01-17T20:26:29.841Z,1.75
2023-01-17T20:28:57.317Z,1.66
2023-01-17T20:31:25.896Z,1.60
2023-01-17T20:33:55.300Z,1.57
2023-01-17T20:36:25.185Z,1.52
2023-01-17T20:38:53.392Z,1.51
2023-01-17T20:41:34.727Z,1.48
2023-01-17T20:44:03.282Z,1.45
2023-01-17T20:46:35.602Z,1.45
2023-01-17T20:49:05.634Z,1.43
2023-01-17T20:51:38.753Z,1.33
2023-01-17T20:54:08.943Z,1.33
2023-01-17T20:56:37.855Z,1.29
2023-01-17T20:59:08.835Z,1.25
2023-01-17T21:01:37.316Z,1.21
2023-01-17T21:04:10.341Z,1.18
2023-01-17T21:06:40.115Z,1.13
2023-01-17T21:09:09.135Z,1.07
2023-01-17T21:11:37.276Z,1.07
2023-01-17T21:14:06.041Z,0.95
2023-01-17T21:16:34.428Z,0.92
2023-01-17T21:19:02.043Z,0.93
2023-01-17T21:21:29.874Z,0.87
2023-01-17T21:23:59.334Z,0.85
2023-01-17T21:26:28.746Z,0.84
2023-01-17T21:28:56.014Z,0.80
2023-01-17T21:31:29.639Z,0.78
2023-01-17T21:33:59.251Z,0.75
2023-01-17T21:36:29.265Z,0.71
2023-01-17T21:38:58.349Z,0.69
2023-01-17T21:41:30.531Z,0.68
2023-01-17T21:44:01.740Z,0.68
2023-01-17T21:46:29.915Z,0.65
2023-01-17T21:48:57.935Z,0.59
2023-01-17T21:51:45.636Z,0.55
2023-01-17T21:54:12.954Z,0.49
2023-01-17T21:56:58.523Z,0.50
2023-01-17T21:59:25.725Z,0.47
2023-01-17T22:01:52.915Z,0.52
2023-01-17T22:04:20.271Z,0.57
2023-01-17T22:06:47.566Z,0.58
2023-01-17T22:09:15.324Z,0.66
2023-01-17T22:11:42.481Z,0.68
2023-01-17T22:14:09.883Z,0.71
2023-01-17T22:16:37.097Z,0.77
2023-01-17T22:19:04.605Z,0.82
2023-01-17T22:21:31.917Z,0.83
2023-01-17T22:24:00.525Z,0.81
2023-01-17T22:26:30.283Z,0.83
2023-01-17T22:29:00.452Z,0.79
2023-01-17T22:31:28.383Z,0.76
2023-01-17T22:33:58.146Z,0.76
2023-01-17T22:36:26.127Z,0.77
2023-01-17T22:38:53.897Z,0.81
2023-01-17T22:41:25.425Z,0.83
2023-01-17T22:43:56.021Z,0.79
2023-01-17T22:46:27.205Z,0.71
2023-01-17T22:48:55.803Z,0.70
2023-01-17T22:51:24.894Z,0.55
2023-01-17T22:53:57.176Z,0.58
2023-01-17T22:56:29.975Z,0.59
2023-01-17T22:59:02.063Z,0.54
2023-01-17T23:01:35.530Z,0.52
2023-01-17T23:04:04.554Z,0.42
2023-01-17T23:06:37.970Z,0.42
2023-01-17T23:09:10.925Z,0.36
2023-01-17T23:11:43.961Z,0.15
2023-01-17T23:14:27.523Z,0.25
2023-01-17T23:17:21.780Z,0.20
2023-01-17T23:19:54.803Z,0.14
2023-01-17T23:22:27.811Z,0.12
2023-01-17T23:25:00.603Z,0.12
2023-01-17T23:27:57.540Z,0.15
2023-01-17T23:30:35.891Z,0.06
2023-01-17T23:33:07.181Z,0.09
2023-01-17T23:35:41.544Z,0.11
2023-01-17T23:38:34.809Z,0.09
2023-01-17T23:41:23.233Z,0.06
2023-01-17T23:43:59.259Z,0.06
2023-01-17T23:46:27.212Z,0.05
2023-01-17T23:48:55.334Z,0.00
2023-01-17T23:51:22.755Z,0.05
2023-01-17T23:53:51.168Z,0.01
2023-01-17T23:56:23.835Z,0.08
2023-01-17T23:58:50.943Z,-0.01
